sensor_id;sensor_type;location;lat;lon;timestamp;temperature;humidity
14908;DHT22;7545;52.092;7.006;2023-04-01T00:01:36;11.40;99.90
14908;DHT22;7545;52.092;7.006;2023-04-01T00:04:02;11.40;99.90
14908;DHT22;7545;52.092;7.006;2023-04-01T00:06:28;11.40;99.90
14908;DHT22;7545;52.092;7.006;2023-04-01T00:08:59;11.40;99.90
14908;DHT22;7545;52.092;7.006;2023-04-01T00:11:28;11.40;99.90
14908;DHT22;7545;52.092;7.006;2023-04-01T00:13:54;11.40;99.90
14908;DHT22;7545;52.092;7.006;2023-04-01T00:16:20;11.40;99.90
14908;DHT22;7545;52.092;7.006;2023-04-01T00:18:45;11.40;99.90
14908;DHT22;7545;52.092;7.006;2023-04-01T00:21:12;11.40;99.90
14908;DHT22;7545;52.092;7.006;2023-04-01T00:23:38;11.30;99.90
14908;DHT22;7545;52.092;7.006;2023-04-01T00:26:04;11.40;99.90
14908;DHT22;7545;52.092;7.006;2023-04-01T00:28:30;11.30;99.90
14908;DHT22;7545;52.092;7.006;2023-04-01T00:30:56;11.30;99.90
14908;DHT22;7545;52.092;7.006;2023-04-01T00:33:22;11.30;99.90
14908;DHT22;7545;52.092;7.006;2023-04-01T00:35:47;11.30;99.90
14908;DHT22;7545;52.092;7.006;2023-04-01T00:38:13;11.30;99.90
14908;DHT22;7545;52.092;7.006;2023-04-01T00:40:41;11.30;99.90
14908;DHT22;7545;52.092;7.006;2023-04-01T00:43:18;11.30;99.90
14908;DHT22;7545;52.092;7.006;2023-04-01T00:45:46;11.30;99.90
14908;DHT22;7545;52.092;7.006;2023-04-01T00:48:33;11.30;99.90
14908;DHT22;7545;52.092;7.006;2023-04-01T00:51:09;11.30;99.90
14908;DHT22;7545;52.092;7.006;2023-04-01T00:53:39;11.30;99.90
14908;DHT22;7545;52.092;7.006;2023-04-01T00:56:15;11.30;99.90
14908;DHT22;7545;52.092;7.006;2023-04-01T00:58:45;11.30;99.90
14908;DHT22;7545;52.092;7.006;2023-04-01T01:01:12;11.30;99.90
14908;DHT22;7545;52.092;7.006;2023-04-01T01:03:37;11.30;99.90
14908;DHT22;7545;52.092;7.006;2023-04-01T01:12:14;11.30;99.90
14908;DHT22;7545;52.092;7.006;2023-04-01T01:15:02;11.30;99.90
14908;DHT22;7545;52.092;7.006;2023-04-01T01:26:27;11.20;99.90
14908;DHT22;7545;52.092;7.006;2023-04-01T01:29:22;11.20;99.90
14908;DHT22;7545;52.092;7.006;2023-04-01T01:35:11;11.20;99.90
14908;DHT22;7545;52.092;7.006;2023-04-01T01:37:40;11.20;99.90
14908;DHT22;7545;52.092;7.006;2023-04-01T01:40:09;11.20;99.90
14908;DHT22;7545;52.092;7.006;2023-04-01T01:42:39;11.20;99.90
14908;DHT22;7545;52.092;7.006;2023-04-01T01:45:07;11.20;99.90
14908;DHT22;7545;52.092;7.006;2023-04-01T01:47:34;11.20;99.90
14908;DHT22;7545;52.092;7.006;2023-04-01T01:50:01;11.20;99.90
14908;DHT22;7545;52.092;7.006;2023-04-01T01:52:29;11.20;99.90
14908;DHT22;7545;52.092;7.006;2023-04-01T01:54:56;11.20;99.90
14908;DHT22;7545;52.092;7.006;2023-04-01T01:57:36;11.20;99.90
14908;DHT22;7545;52.092;7.006;2023-04-01T02:00:07;11.20;99.90
14908;DHT22;7545;52.092;7.006;2023-04-01T02:02:40;11.20;99.90
14908;DHT22;7545;52.092;7.006;2023-04-01T02:05:09;11.20;99.90
14908;DHT22;7545;52.092;7.006;2023-04-01T02:07:36;11.20;99.90
14908;DHT22;7545;52.092;7.006;2023-04-01T02:10:03;11.20;99.90
14908;DHT22;7545;52.092;7.006;2023-04-01T02:12:37;11.20;99.90
14908;DHT22;7545;52.092;7.006;2023-04-01T02:15:09;11.20;99.90
14908;DHT22;7545;52.092;7.006;2023-04-01T02:17:39;11.20;99.90
14908;DHT22;7545;52.092;7.006;2023-04-01T02:20:11;11.20;99.90
14908;DHT22;7545;52.092;7.006;2023-04-01T02:22:41;11.10;99.90
14908;DHT22;7545;52.092;7.006;2023-04-01T02:25:12;11.10;99.90
14908;DHT22;7545;52.092;7.006;2023-04-01T02:27:43;11.10;99.90
14908;DHT22;7545;52.092;7.006;2023-04-01T02:30:11;11.20;99.90
14908;DHT22;7545;52.092;7.006;2023-04-01T02:32:37;11.10;99.90
14908;DHT22;7545;52.092;7.006;2023-04-01T02:35:15;11.10;99.90
14908;DHT22;7545;52.092;7.006;2023-04-01T02:37:42;11.10;99.90
14908;DHT22;7545;52.092;7.006;2023-04-01T02:40:11;11.10;99.90
14908;DHT22;7545;52.092;7.006;2023-04-01T02:42:38;11.10;99.90
14908;DHT22;7545;52.092;7.006;2023-04-01T02:45:05;11.10;99.90
14908;DHT22;7545;52.092;7.006;2023-04-01T02:47:31;11.10;99.90
14908;DHT22;7545;52.092;7.006;2023-04-01T02:49:56;11.00;99.90
14908;DHT22;7545;52.092;7.006;2023-04-01T02:52:25;11.10;99.90
14908;DHT22;7545;52.092;7.006;2023-04-01T02:54:50;11.10;99.90
14908;DHT22;7545;52.092;7.006;2023-04-01T02:57:16;11.10;99.90
14908;DHT22;7545;52.092;7.006;2023-04-01T02:59:42;11.00;99.90
14908;DHT22;7545;52.092;7.006;2023-04-01T03:02:07;11.00;99.90
14908;DHT22;7545;52.092;7.006;2023-04-01T03:04:33;11.10;99.90
14908;DHT22;7545;52.092;7.006;2023-04-01T03:06:58;11.10;99.90
14908;DHT22;7545;52.092;7.006;2023-04-01T03:09:24;11.10;99.90
14908;DHT22;7545;52.092;7.006;2023-04-01T03:11:50;11.10;99.90
14908;DHT22;7545;52.092;7.006;2023-04-01T03:14:15;11.00;99.90
14908;DHT22;7545;52.092;7.006;2023-04-01T03:16:41;11.10;99.90
14908;DHT22;7545;52.092;7.006;2023-04-01T03:19:06;11.00;99.90
14908;DHT22;7545;52.092;7.006;2023-04-01T03:21:32;11.00;99.90
14908;DHT22;7545;52.092;7.006;2023-04-01T03:23:58;11.10;99.90
14908;DHT22;7545;52.092;7.006;2023-04-01T03:26:24;11.10;99.90
14908;DHT22;7545;52.092;7.006;2023-04-01T03:28:52;11.10;99.90
14908;DHT22;7545;52.092;7.006;2023-04-01T03:31:18;11.00;99.90
14908;DHT22;7545;52.092;7.006;2023-04-01T03:33:43;11.10;99.90
14908;DHT22;7545;52.092;7.006;2023-04-01T03:36:09;11.10;99.90
14908;DHT22;7545;52.092;7.006;2023-04-01T03:38:37;11.00;99.90
14908;DHT22;7545;52.092;7.006;2023-04-01T03:41:04;11.00;99.90
14908;DHT22;7545;52.092;7.006;2023-04-01T03:43:29;11.00;99.90
14908;DHT22;7545;52.092;7.006;2023-04-01T03:45:55;11.10;99.90
14908;DHT22;7545;52.092;7.006;2023-04-01T03:48:23;11.00;99.90
14908;DHT22;7545;52.092;7.006;2023-04-01T03:50:48;11.00;99.90
14908;DHT22;7545;52.092;7.006;2023-04-01T03:53:14;11.00;99.90
14908;DHT22;7545;52.092;7.006;2023-04-01T03:55:40;11.00;99.90
14908;DHT22;7545;52.092;7.006;2023-04-01T03:58:07;11.00;99.90
14908;DHT22;7545;52.092;7.006;2023-04-01T04:00:33;11.00;99.90
14908;DHT22;7545;52.092;7.006;2023-04-01T04:02:58;11.00;99.90
14908;DHT22;7545;52.092;7.006;2023-04-01T04:05:25;11.00;99.90
14908;DHT22;7545;52.092;7.006;2023-04-01T04:07:51;11.00;99.90
14908;DHT22;7545;52.092;7.006;2023-04-01T04:10:18;11.00;99.90
14908;DHT22;7545;52.092;7.006;2023-04-01T04:12:44;11.00;99.90
14908;DHT22;7545;52.092;7.006;2023-04-01T04:15:10;11.00;99.90
14908;DHT22;7545;52.092;7.006;2023-04-01T04:17:36;11.00;99.90
14908;DHT22;7545;52.092;7.006;2023-04-01T04:20:02;11.00;99.90
14908;DHT22;7545;52.092;7.006;2023-04-01T04:22:27;11.00;99.90
14908;DHT22;7545;52.092;7.006;2023-04-01T04:24:53;11.00;99.90
14908;DHT22;7545;52.092;7.006;2023-04-01T04:27:19;11.10;99.90
14908;DHT22;7545;52.092;7.006;2023-04-01T04:29:45;11.10;99.90
14908;DHT22;7545;52.092;7.006;2023-04-01T04:32:10;11.10;99.90
14908;DHT22;7545;52.092;7.006;2023-04-01T04:34:36;11.00;99.90
14908;DHT22;7545;52.092;7.006;2023-04-01T04:37:02;11.00;99.90
14908;DHT22;7545;52.092;7.006;2023-04-01T04:39:27;11.00;99.90
14908;DHT22;7545;52.092;7.006;2023-04-01T04:41:53;11.00;99.90
14908;DHT22;7545;52.092;7.006;2023-04-01T04:44:19;11.00;99.90
14908;DHT22;7545;52.092;7.006;2023-04-01T04:46:44;11.00;99.90
14908;DHT22;7545;52.092;7.006;2023-04-01T04:49:10;11.00;99.90
14908;DHT22;7545;52.092;7.006;2023-04-01T04:51:36;11.00;99.90
14908;DHT22;7545;52.092;7.006;2023-04-01T04:54:03;11.00;99.90
14908;DHT22;7545;52.092;7.006;2023-04-01T04:56:28;11.00;99.90
14908;DHT22;7545;52.092;7.006;2023-04-01T04:58:54;11.00;99.90
14908;DHT22;7545;52.092;7.006;2023-04-01T05:01:20;11.00;99.90
14908;DHT22;7545;52.092;7.006;2023-04-01T05:03:46;11.00;99.90
14908;DHT22;7545;52.092;7.006;2023-04-01T05:06:14;11.00;99.90
14908;DHT22;7545;52.092;7.006;2023-04-01T05:08:41;11.00;99.90
14908;DHT22;7545;52.092;7.006;2023-04-01T05:11:15;11.00;99.90
14908;DHT22;7545;52.092;7.006;2023-04-01T05:13:42;11.00;99.90
14908;DHT22;7545;52.092;7.006;2023-04-01T05:16:10;11.00;99.90
14908;DHT22;7545;52.092;7.006;2023-04-01T05:18:35;11.00;99.90
14908;DHT22;7545;52.092;7.006;2023-04-01T05:21:01;11.00;99.90
14908;DHT22;7545;52.092;7.006;2023-04-01T05:23:27;11.00;99.90
14908;DHT22;7545;52.092;7.006;2023-04-01T05:25:53;11.00;99.90
14908;DHT22;7545;52.092;7.006;2023-04-01T05:28:22;11.00;99.90
14908;DHT22;7545;52.092;7.006;2023-04-01T05:30:48;11.00;99.90
14908;DHT22;7545;52.092;7.006;2023-04-01T05:33:13;11.00;99.90
14908;DHT22;7545;52.092;7.006;2023-04-01T05:35:39;11.00;99.90
14908;DHT22;7545;52.092;7.006;2023-04-01T05:38:06;11.00;99.90
14908;DHT22;7545;52.092;7.006;2023-04-01T05:40:32;11.00;99.90
14908;DHT22;7545;52.092;7.006;2023-04-01T05:42:58;11.00;99.90
14908;DHT22;7545;52.092;7.006;2023-04-01T05:45:24;11.00;99.90
14908;DHT22;7545;52.092;7.006;2023-04-01T05:47:50;11.00;99.90
14908;DHT22;7545;52.092;7.006;2023-04-01T05:50:16;11.00;99.90
14908;DHT22;7545;52.092;7.006;2023-04-01T05:52:42;11.00;99.90
14908;DHT22;7545;52.092;7.006;2023-04-01T05:55:08;11.00;99.90
14908;DHT22;7545;52.092;7.006;2023-04-01T05:57:33;11.00;99.90
14908;DHT22;7545;52.092;7.006;2023-04-01T05:59:59;11.00;99.90
14908;DHT22;7545;52.092;7.006;2023-04-01T06:02:25;11.00;99.90
14908;DHT22;7545;52.092;7.006;2023-04-01T06:05:00;11.00;99.90
14908;DHT22;7545;52.092;7.006;2023-04-01T06:07:27;11.00;99.90
14908;DHT22;7545;52.092;7.006;2023-04-01T06:09:54;11.00;99.90
14908;DHT22;7545;52.092;7.006;2023-04-01T06:18:34;11.10;99.90
14908;DHT22;7545;52.092;7.006;2023-04-01T06:24:06;11.10;99.90
14908;DHT22;7545;52.092;7.006;2023-04-01T06:26:42;11.10;99.90
14908;DHT22;7545;52.092;7.006;2023-04-01T06:35:13;11.20;99.90
14908;DHT22;7545;52.092;7.006;2023-04-01T06:40:49;11.20;99.90
14908;DHT22;7545;52.092;7.006;2023-04-01T06:46:59;11.20;99.90
14908;DHT22;7545;52.092;7.006;2023-04-01T06:54:21;11.20;99.90
14908;DHT22;7545;52.092;7.006;2023-04-01T06:56:57;11.20;99.90
14908;DHT22;7545;52.092;7.006;2023-04-01T06:59:33;11.20;99.90
14908;DHT22;7545;52.092;7.006;2023-04-01T07:03:04;11.20;99.90
14908;DHT22;7545;52.092;7.006;2023-04-01T07:05:11;11.30;99.90
14908;DHT22;7545;52.092;7.006;2023-04-01T07:07:47;11.20;99.90
14908;DHT22;7545;52.092;7.006;2023-04-01T07:10:25;11.30;99.90
14908;DHT22;7545;52.092;7.006;2023-04-01T07:12:57;11.30;99.90
14908;DHT22;7545;52.092;7.006;2023-04-01T07:15:39;11.30;99.90
14908;DHT22;7545;52.092;7.006;2023-04-01T07:18:19;11.30;99.90
14908;DHT22;7545;52.092;7.006;2023-04-01T07:20:46;11.30;99.90
14908;DHT22;7545;52.092;7.006;2023-04-01T07:23:23;11.30;99.90
14908;DHT22;7545;52.092;7.006;2023-04-01T07:25:56;11.30;99.90
14908;DHT22;7545;52.092;7.006;2023-04-01T07:28:23;11.30;99.90
14908;DHT22;7545;52.092;7.006;2023-04-01T07:30:58;11.30;99.90
14908;DHT22;7545;52.092;7.006;2023-04-01T07:33:43;11.30;99.90
14908;DHT22;7545;52.092;7.006;2023-04-01T07:45:05;11.40;99.90
14908;DHT22;7545;52.092;7.006;2023-04-01T07:50:11;11.50;99.90
14908;DHT22;7545;52.092;7.006;2023-04-01T08:00:36;11.50;99.90
14908;DHT22;7545;52.092;7.006;2023-04-01T08:03:21;11.60;99.90
14908;DHT22;7545;52.092;7.006;2023-04-01T08:06:20;11.60;99.90
14908;DHT22;7545;52.092;7.006;2023-04-01T08:11:24;11.60;99.90
14908;DHT22;7545;52.092;7.006;2023-04-01T08:16:38;11.60;99.90
14908;DHT22;7545;52.092;7.006;2023-04-01T08:19:21;11.70;99.90
14908;DHT22;7545;52.092;7.006;2023-04-01T08:21:52;11.70;99.90
14908;DHT22;7545;52.092;7.006;2023-04-01T08:24:40;11.70;99.90
14908;DHT22;7545;52.092;7.006;2023-04-01T08:27:22;11.70;99.90
14908;DHT22;7545;52.092;7.006;2023-04-01T08:29:50;11.80;99.90
14908;DHT22;7545;52.092;7.006;2023-04-01T08:32:38;11.80;99.90
14908;DHT22;7545;52.092;7.006;2023-04-01T08:35:29;11.80;99.90
14908;DHT22;7545;52.092;7.006;2023-04-01T08:38:00;11.90;99.90
14908;DHT22;7545;52.092;7.006;2023-04-01T08:40:39;11.90;99.90
14908;DHT22;7545;52.092;7.006;2023-04-01T08:49:17;12.00;99.90
14908;DHT22;7545;52.092;7.006;2023-04-01T09:00:37;12.20;99.90
14908;DHT22;7545;52.092;7.006;2023-04-01T09:03:34;12.30;99.90
14908;DHT22;7545;52.092;7.006;2023-04-01T09:08:58;12.30;99.90
14908;DHT22;7545;52.092;7.006;2023-04-01T09:17:36;12.50;99.90
14908;DHT22;7545;52.092;7.006;2023-04-01T09:28:33;12.50;99.90
14908;DHT22;7545;52.092;7.006;2023-04-01T09:33:42;12.40;99.90
14908;DHT22;7545;52.092;7.006;2023-04-01T09:41:54;12.40;99.90
14908;DHT22;7545;52.092;7.006;2023-04-01T09:50:30;12.30;99.90
14908;DHT22;7545;52.092;7.006;2023-04-01T10:21:05;12.50;99.90
14908;DHT22;7545;52.092;7.006;2023-04-01T10:26:48;12.50;99.90
14908;DHT22;7545;52.092;7.006;2023-04-01T10:34:38;12.70;99.90
14908;DHT22;7545;52.092;7.006;2023-04-01T10:46:14;12.90;99.90
14908;DHT22;7545;52.092;7.006;2023-04-01T10:52:56;13.00;99.90
14908;DHT22;7545;52.092;7.006;2023-04-01T10:55:14;13.10;99.90
14908;DHT22;7545;52.092;7.006;2023-04-01T11:00:53;13.10;99.90
14908;DHT22;7545;52.092;7.006;2023-04-01T11:04:01;13.20;99.90
14908;DHT22;7545;52.092;7.006;2023-04-01T11:18:04;13.20;99.90
14908;DHT22;7545;52.092;7.006;2023-04-01T11:25:48;13.30;99.90
14908;DHT22;7545;52.092;7.006;2023-04-01T11:33:36;13.50;99.90
14908;DHT22;7545;52.092;7.006;2023-04-01T11:39:15;13.70;99.90
14908;DHT22;7545;52.092;7.006;2023-04-01T11:45:30;14.00;99.90
14908;DHT22;7545;52.092;7.006;2023-04-01T12:12:54;14.60;99.90
14908;DHT22;7545;52.092;7.006;2023-04-01T12:18:58;14.60;99.90
14908;DHT22;7545;52.092;7.006;2023-04-01T12:21:21;14.60;99.90
14908;DHT22;7545;52.092;7.006;2023-04-01T12:24:34;14.60;99.90
14908;DHT22;7545;52.092;7.006;2023-04-01T12:27:20;14.60;99.90
14908;DHT22;7545;52.092;7.006;2023-04-01T12:30:55;14.60;99.90
14908;DHT22;7545;52.092;7.006;2023-04-01T12:38:31;14.50;99.90
14908;DHT22;7545;52.092;7.006;2023-04-01T12:41:23;14.50;99.90
14908;DHT22;7545;52.092;7.006;2023-04-01T12:52:18;14.50;99.90
14908;DHT22;7545;52.092;7.006;2023-04-01T13:06:29;14.50;99.90
14908;DHT22;7545;52.092;7.006;2023-04-01T13:17:34;14.00;99.90
14908;DHT22;7545;52.092;7.006;2023-04-01T13:25:39;13.70;99.90
14908;DHT22;7545;52.092;7.006;2023-04-01T13:28:16;13.70;99.90
14908;DHT22;7545;52.092;7.006;2023-04-01T13:30:49;13.70;99.90
14908;DHT22;7545;52.092;7.006;2023-04-01T13:33:38;13.70;99.90
14908;DHT22;7545;52.092;7.006;2023-04-01T13:36:19;13.70;99.90
14908;DHT22;7545;52.092;7.006;2023-04-01T13:44:16;13.60;99.90
14908;DHT22;7545;52.092;7.006;2023-04-01T13:47:06;13.60;99.90
14908;DHT22;7545;52.092;7.006;2023-04-01T13:58:55;13.60;99.90
14908;DHT22;7545;52.092;7.006;2023-04-01T14:04:45;13.60;99.90
14908;DHT22;7545;52.092;7.006;2023-04-01T14:07:29;13.50;99.90
14908;DHT22;7545;52.092;7.006;2023-04-01T14:10:08;13.60;99.90
14908;DHT22;7545;52.092;7.006;2023-04-01T14:15:25;13.70;99.90
14908;DHT22;7545;52.092;7.006;2023-04-01T14:40:28;13.50;99.90
14908;DHT22;7545;52.092;7.006;2023-04-01T14:48:37;13.50;99.90
14908;DHT22;7545;52.092;7.006;2023-04-01T14:51:34;13.40;99.90
14908;DHT22;7545;52.092;7.006;2023-04-01T15:10:05;13.40;99.90
14908;DHT22;7545;52.092;7.006;2023-04-01T15:18:35;13.10;99.90
14908;DHT22;7545;52.092;7.006;2023-04-01T15:21:10;13.10;99.90
14908;DHT22;7545;52.092;7.006;2023-04-01T15:29:38;13.10;99.90
14908;DHT22;7545;52.092;7.006;2023-04-01T15:37:55;13.00;99.90
14908;DHT22;7545;52.092;7.006;2023-04-01T15:40:32;13.00;99.90
14908;DHT22;7545;52.092;7.006;2023-04-01T15:54:37;13.00;99.90
14908;DHT22;7545;52.092;7.006;2023-04-01T16:05:33;13.00;99.90
14908;DHT22;7545;52.092;7.006;2023-04-01T16:08:24;12.90;99.90
14908;DHT22;7545;52.092;7.006;2023-04-01T16:11:15;12.90;99.90
14908;DHT22;7545;52.092;7.006;2023-04-01T16:25:36;12.60;99.90
14908;DHT22;7545;52.092;7.006;2023-04-01T16:28:15;12.60;99.90
14908;DHT22;7545;52.092;7.006;2023-04-01T16:30:58;12.50;99.90
14908;DHT22;7545;52.092;7.006;2023-04-01T16:36:13;12.40;99.90
14908;DHT22;7545;52.092;7.006;2023-04-01T16:41:38;12.30;99.90
14908;DHT22;7545;52.092;7.006;2023-04-01T16:46:55;12.30;99.90
14908;DHT22;7545;52.092;7.006;2023-04-01T16:58:36;12.10;99.90
14908;DHT22;7545;52.092;7.006;2023-04-01T17:01:23;12.10;99.90
14908;DHT22;7545;52.092;7.006;2023-04-01T17:03:57;12.00;99.90
14908;DHT22;7545;52.092;7.006;2023-04-01T17:06:55;12.00;99.90
14908;DHT22;7545;52.092;7.006;2023-04-01T17:09:36;11.90;99.90
14908;DHT22;7545;52.092;7.006;2023-04-01T17:23:17;11.70;99.90
14908;DHT22;7545;52.092;7.006;2023-04-01T17:28:50;11.70;99.90
14908;DHT22;7545;52.092;7.006;2023-04-01T17:39:19;11.60;99.90
14908;DHT22;7545;52.092;7.006;2023-04-01T17:42:09;11.60;99.90
14908;DHT22;7545;52.092;7.006;2023-04-01T17:45:04;11.60;99.90
14908;DHT22;7545;52.092;7.006;2023-04-01T17:55:53;11.40;99.90
14908;DHT22;7545;52.092;7.006;2023-04-01T18:01:09;11.40;99.90
14908;DHT22;7545;52.092;7.006;2023-04-01T18:04:11;11.40;99.90
14908;DHT22;7545;52.092;7.006;2023-04-01T18:06:50;11.30;99.90
14908;DHT22;7545;52.092;7.006;2023-04-01T18:09:37;11.30;99.90
14908;DHT22;7545;52.092;7.006;2023-04-01T18:26:04;11.00;99.90
14908;DHT22;7545;52.092;7.006;2023-04-01T18:39:08;10.90;99.90
14908;DHT22;7545;52.092;7.006;2023-04-01T18:50:15;10.70;99.90
14908;DHT22;7545;52.092;7.006;2023-04-01T18:52:45;10.70;99.90
14908;DHT22;7545;52.092;7.006;2023-04-01T18:57:52;10.70;99.90
14908;DHT22;7545;52.092;7.006;2023-04-01T19:00:32;10.70;99.90
14908;DHT22;7545;52.092;7.006;2023-04-01T19:03:03;10.70;99.90
14908;DHT22;7545;52.092;7.006;2023-04-01T19:05:40;10.60;99.90
14908;DHT22;7545;52.092;7.006;2023-04-01T19:08:31;10.60;99.90
14908;DHT22;7545;52.092;7.006;2023-04-01T19:11:24;10.60;99.90
14908;DHT22;7545;52.092;7.006;2023-04-01T19:14:27;10.60;99.90
14908;DHT22;7545;52.092;7.006;2023-04-01T19:28:26;10.40;99.90
14908;DHT22;7545;52.092;7.006;2023-04-01T19:30:57;10.40;99.90
14908;DHT22;7545;52.092;7.006;2023-04-01T19:39:38;10.30;99.90
14908;DHT22;7545;52.092;7.006;2023-04-01T19:42:43;10.30;99.90
14908;DHT22;7545;52.092;7.006;2023-04-01T19:45:26;10.20;99.90
14908;DHT22;7545;52.092;7.006;2023-04-01T19:48:00;10.20;99.90
14908;DHT22;7545;52.092;7.006;2023-04-01T20:01:52;10.10;99.90
14908;DHT22;7545;52.092;7.006;2023-04-01T20:04:40;10.10;99.90
14908;DHT22;7545;52.092;7.006;2023-04-01T20:10:13;10.00;99.90
14908;DHT22;7545;52.092;7.006;2023-04-01T20:15:36;10.00;99.90
14908;DHT22;7545;52.092;7.006;2023-04-01T20:18:32;9.90;99.90
14908;DHT22;7545;52.092;7.006;2023-04-01T20:23:54;9.80;99.90
14908;DHT22;7545;52.092;7.006;2023-04-01T20:26:27;9.70;99.90
14908;DHT22;7545;52.092;7.006;2023-04-01T20:38:06;9.60;99.90
14908;DHT22;7545;52.092;7.006;2023-04-01T20:40:45;9.60;99.90
14908;DHT22;7545;52.092;7.006;2023-04-01T20:48:48;9.50;99.90
14908;DHT22;7545;52.092;7.006;2023-04-01T20:51:30;9.50;99.90
14908;DHT22;7545;52.092;7.006;2023-04-01T20:54:34;9.50;99.90
14908;DHT22;7545;52.092;7.006;2023-04-01T21:06:10;9.50;99.90
14908;DHT22;7545;52.092;7.006;2023-04-01T21:12:00;9.50;99.90
14908;DHT22;7545;52.092;7.006;2023-04-01T21:17:36;9.40;99.90
14908;DHT22;7545;52.092;7.006;2023-04-01T21:26:06;9.30;99.90
14908;DHT22;7545;52.092;7.006;2023-04-01T21:28:54;9.20;99.90
14908;DHT22;7545;52.092;7.006;2023-04-01T21:31:40;9.30;99.90
14908;DHT22;7545;52.092;7.006;2023-04-01T21:37:36;9.20;99.90
14908;DHT22;7545;52.092;7.006;2023-04-01T21:43:44;9.20;99.90
14908;DHT22;7545;52.092;7.006;2023-04-01T21:54:26;9.20;99.90
14908;DHT22;7545;52.092;7.006;2023-04-01T21:57:05;9.20;99.90
14908;DHT22;7545;52.092;7.006;2023-04-01T22:00:00;9.10;99.90
14908;DHT22;7545;52.092;7.006;2023-04-01T22:21:09;8.90;99.90
14908;DHT22;7545;52.092;7.006;2023-04-01T22:23:47;9.00;99.90
14908;DHT22;7545;52.092;7.006;2023-04-01T22:26:27;9.00;99.90
14908;DHT22;7545;52.092;7.006;2023-04-01T22:29:26;8.90;99.90
14908;DHT22;7545;52.092;7.006;2023-04-01T22:34:57;8.80;99.90
14908;DHT22;7545;52.092;7.006;2023-04-01T22:46:02;8.70;99.90
14908;DHT22;7545;52.092;7.006;2023-04-01T22:48:40;8.70;99.90
14908;DHT22;7545;52.092;7.006;2023-04-01T22:56:49;8.60;99.90
14908;DHT22;7545;52.092;7.006;2023-04-01T23:02:20;8.60;99.90
14908;DHT22;7545;52.092;7.006;2023-04-01T23:04:55;8.50;99.90
14908;DHT22;7545;52.092;7.006;2023-04-01T23:07:38;8.50;99.90
14908;DHT22;7545;52.092;7.006;2023-04-01T23:10:51;8.50;99.90
14908;DHT22;7545;52.092;7.006;2023-04-01T23:13:22;8.50;99.90
14908;DHT22;7545;52.092;7.006;2023-04-01T23:15:52;8.40;99.90
14908;DHT22;7545;52.092;7.006;2023-04-01T23:18:20;8.40;99.90
14908;DHT22;7545;52.092;7.006;2023-04-01T23:26:52;8.40;99.90
14908;DHT22;7545;52.092;7.006;2023-04-01T23:29:21;8.40;99.90
14908;DHT22;7545;52.092;7.006;2023-04-01T23:31:49;8.40;99.90
14908;DHT22;7545;52.092;7.006;2023-04-01T23:34:24;8.40;99.90
14908;DHT22;7545;52.092;7.006;2023-04-01T23:36:54;8.40;99.90
14908;DHT22;7545;52.092;7.006;2023-04-01T23:39:34;8.40;99.90
14908;DHT22;7545;52.092;7.006;2023-04-01T23:44:45;8.40;99.90
14908;DHT22;7545;52.092;7.006;2023-04-01T23:47:20;8.40;99.90
14908;DHT22;7545;52.092;7.006;2023-04-01T23:52:42;8.30;99.90
14908;DHT22;7545;52.092;7.006;2023-04-01T23:57:37;8.30;99.90
